Time;durP1;ratioP1;P1;durP2;ratioP2;P2;SDS_P1;SDS_P2;PMS_P1;PMS_P2;Temp;Humidity;BMP_temperature;BMP_pressure;BME280_temperature;BME280_humidity;BME280_pressure;Samples;Min_cycle;Max_cycle;Signal;HPM_P1;HPM_P2
2021/12/26 00:01:00;;;;;;;3.08;1.67;;;-0.40;73.20;;;;;;4933663;29;20040;-88
2021/12/26 00:03:31;;;;;;;4.72;2.45;;;-0.30;73.20;;;;;;4932915;29;20190;-88
2021/12/26 00:06:00;;;;;;;3.80;2.58;;;-0.30;72.90;;;;;;4932252;29;20035;-88
2021/12/26 00:08:26;;;;;;;4.25;2.30;;;-0.40;72.20;;;;;;4925117;29;20048;-88
2021/12/26 00:10:53;;;;;;;3.75;1.95;;;-0.40;72.60;;;;;;4934735;29;20039;-88
2021/12/26 00:13:20;;;;;;;2.42;1.70;;;-0.50;72.80;;;;;;4937408;29;20561;-87
2021/12/26 00:15:46;;;;;;;4.05;2.25;;;-0.40;73.20;;;;;;4935022;29;20490;-87
2021/12/26 00:18:13;;;;;;;2.92;1.52;;;-0.40;73.00;;;;;;4938187;29;20066;-88
2021/12/26 00:20:40;;;;;;;5.13;1.98;;;-0.40;73.50;;;;;;4937262;29;20035;-87
2021/12/26 00:23:06;;;;;;;4.28;2.72;;;-0.40;73.90;;;;;;4927813;29;20063;-87
2021/12/26 00:25:33;;;;;;;3.15;2.08;;;-0.40;73.50;;;;;;4925166;29;20093;-89
2021/12/26 00:27:59;;;;;;;2.60;1.63;;;-0.40;73.60;;;;;;4932689;29;20047;-88
2021/12/26 00:30:25;;;;;;;5.30;2.17;;;-0.50;73.60;;;;;;4935174;29;20028;-87
2021/12/26 00:32:51;;;;;;;5.30;2.15;;;-0.40;73.60;;;;;;4929139;29;20070;-89
2021/12/26 00:35:19;;;;;;;3.45;2.50;;;-0.40;74.00;;;;;;4932492;29;20035;-88
2021/12/26 00:37:46;;;;;;;2.53;1.92;;;-0.40;73.70;;;;;;4938663;29;20062;-88
2021/12/26 00:40:14;;;;;;;3.17;2.67;;;-0.40;74.00;;;;;;4952048;29;20039;-89
2021/12/26 00:42:42;;;;;;;3.70;2.25;;;-0.40;74.30;;;;;;4943612;29;20036;-88
2021/12/26 00:45:09;;;;;;;7.15;3.17;;;-0.40;74.70;;;;;;4941556;29;20035;-86
2021/12/26 00:47:35;;;;;;;3.33;2.10;;;-0.40;74.70;;;;;;4941482;29;20044;-87
2021/12/26 00:50:03;;;;;;;6.28;2.63;;;-0.40;74.90;;;;;;4938959;29;20077;-87
2021/12/26 00:52:28;;;;;;;4.88;2.65;;;-0.30;75.00;;;;;;4933457;29;20036;-88
2021/12/26 00:54:54;;;;;;;5.22;2.22;;;-0.30;74.30;;;;;;4924692;29;20073;-91
2021/12/26 00:57:20;;;;;;;4.88;2.70;;;-0.30;74.40;;;;;;4935787;29;20042;-90
2021/12/26 00:59:47;;;;;;;4.65;2.30;;;-0.30;74.90;;;;;;4962303;29;20044;-90
2021/12/26 01:02:14;;;;;;;4.60;2.50;;;-0.30;74.60;;;;;;4948769;29;20042;-91
2021/12/26 01:04:40;;;;;;;6.22;3.83;;;-0.30;74.40;;;;;;4953412;29;20042;-92
2021/12/26 01:07:30;;;;;;;4.28;2.30;;;-0.30;73.80;;;;;;4948670;29;20043;-91
2021/12/26 01:09:56;;;;;;;4.85;2.80;;;-0.30;74.50;;;;;;4943197;29;20125;-91
2021/12/26 01:12:23;;;;;;;4.05;2.80;;;-0.30;74.70;;;;;;4941540;29;20072;-92
2021/12/26 01:14:56;;;;;;;3.40;2.30;;;-0.30;74.70;;;;;;4941609;29;20057;-91
2021/12/26 01:17:24;;;;;;;5.20;2.17;;;-0.30;74.60;;;;;;4941735;29;20040;-92
2021/12/26 01:19:52;;;;;;;5.88;2.95;;;-0.40;74.00;;;;;;4942074;29;20058;-91
2021/12/26 01:22:19;;;;;;;4.22;3.15;;;-0.40;74.40;;;;;;4942535;29;20470;-91
2021/12/26 01:24:48;;;;;;;6.88;3.20;;;-0.40;74.60;;;;;;4941999;29;20043;-91
2021/12/26 01:27:14;;;;;;;5.07;2.60;;;-0.40;74.30;;;;;;4942504;29;20071;-91
2021/12/26 01:29:41;;;;;;;3.40;2.25;;;-0.50;74.40;;;;;;4958567;29;20044;-91
2021/12/26 01:32:09;;;;;;;3.88;2.40;;;-0.60;74.40;;;;;;4941793;29;20394;-91
2021/12/26 01:34:34;;;;;;;2.40;1.70;;;-0.60;74.30;;;;;;4941845;29;20130;-91
2021/12/26 01:37:00;;;;;;;5.10;2.88;;;-0.70;74.80;;;;;;4941385;29;20073;-91
2021/12/26 01:39:26;;;;;;;4.25;1.95;;;-0.70;74.70;;;;;;4941356;29;20043;-91
2021/12/26 01:41:52;;;;;;;2.17;1.90;;;-0.70;74.60;;;;;;4941417;29;20086;-91
2021/12/26 01:44:18;;;;;;;2.03;1.85;;;-0.80;75.00;;;;;;4941609;29;20031;-91
2021/12/26 01:46:46;;;;;;;1.58;1.48;;;-0.70;75.40;;;;;;4941441;29;20374;-91
2021/12/26 01:49:15;;;;;;;2.22;1.73;;;-0.80;75.40;;;;;;4940894;29;20039;-91
2021/12/26 01:51:43;;;;;;;1.55;1.45;;;-0.80;75.60;;;;;;4941551;29;20035;-91
2021/12/26 01:54:12;;;;;;;2.67;1.60;;;-0.80;75.40;;;;;;4941340;29;20035;-91
2021/12/26 01:56:41;;;;;;;4.80;2.10;;;-0.80;75.50;;;;;;4943543;29;20130;-91
2021/12/26 01:59:09;;;;;;;2.55;2.30;;;-0.80;75.60;;;;;;4951752;29;20035;-91
2021/12/26 02:01:35;;;;;;;2.83;2.03;;;-0.90;75.50;;;;;;4948358;29;20067;-91
2021/12/26 02:04:02;;;;;;;3.15;2.03;;;-0.90;75.40;;;;;;4953075;29;20039;-90
2021/12/26 02:06:28;;;;;;;4.30;2.22;;;-0.90;75.70;;;;;;4951854;29;20035;-91
2021/12/26 02:08:54;;;;;;;2.35;2.13;;;-0.90;76.10;;;;;;4942485;29;20152;-91
2021/12/26 02:11:19;;;;;;;5.00;2.45;;;-0.90;75.80;;;;;;4941360;29;20055;-91
2021/12/26 02:13:46;;;;;;;3.25;2.08;;;-0.90;75.80;;;;;;4941459;29;20039;-90
2021/12/26 02:16:13;;;;;;;4.65;2.42;;;-0.90;76.10;;;;;;4941152;29;20115;-91
2021/12/26 02:18:40;;;;;;;11.35;3.20;;;-0.90;76.00;;;;;;4941033;29;20046;-90
2021/12/26 02:23:47;;;;;;;3.95;2.33;;;-0.90;76.40;;;;;;4958323;29;20047;-90
2021/12/26 02:28:41;;;;;;;2.42;1.63;;;-0.90;76.60;;;;;;4958709;29;20074;-91
2021/12/26 02:31:07;;;;;;;5.10;2.03;;;-0.90;76.80;;;;;;4963030;29;20042;-91
2021/12/26 02:33:33;;;;;;;7.38;2.33;;;-0.90;76.90;;;;;;4949782;29;20125;-91
2021/12/26 02:35:59;;;;;;;7.30;2.20;;;-0.90;76.90;;;;;;4949803;29;20059;-91
2021/12/26 02:38:25;;;;;;;2.90;2.03;;;-0.90;77.00;;;;;;4951839;29;20470;-90
2021/12/26 02:40:54;;;;;;;2.78;1.38;;;-0.90;77.20;;;;;;4945247;29;20035;-91
2021/12/26 02:43:23;;;;;;;4.18;1.73;;;-0.90;77.10;;;;;;4946940;29;20039;-90
2021/12/26 02:45:49;;;;;;;4.65;2.20;;;-0.90;77.10;;;;;;4943957;29;20070;-91
2021/12/26 02:48:15;;;;;;;5.18;2.90;;;-0.90;76.90;;;;;;4958018;29;20471;-91
2021/12/26 02:50:43;;;;;;;4.47;1.98;;;-0.90;76.90;;;;;;4958699;29;20105;-90
2021/12/26 02:53:12;;;;;;;2.88;1.73;;;-0.90;76.70;;;;;;4940862;29;20035;-91
2021/12/26 02:55:38;;;;;;;6.13;3.38;;;-0.90;76.60;;;;;;4940318;29;20534;-90
2021/12/26 02:58:08;;;;;;;3.20;2.10;;;-0.90;76.80;;;;;;4940166;29;20070;-91
2021/12/26 03:00:43;;;;;;;5.95;2.30;;;-1.00;76.80;;;;;;4940444;29;20039;-91
2021/12/26 03:03:09;;;;;;;2.40;2.10;;;-1.00;77.20;;;;;;4943009;29;20086;-91
2021/12/26 03:05:37;;;;;;;2.53;1.77;;;-1.00;77.20;;;;;;4949033;29;20035;-90
2021/12/26 03:08:05;;;;;;;2.42;1.65;;;-1.00;77.40;;;;;;4944687;29;20074;-91
2021/12/26 03:10:32;;;;;;;3.33;1.60;;;-1.10;77.50;;;;;;4965054;29;20031;-90
2021/12/26 03:13:00;;;;;;;4.28;2.42;;;-1.10;77.50;;;;;;4940262;29;20058;-91
2021/12/26 03:15:28;;;;;;;2.92;1.40;;;-1.10;77.50;;;;;;4958689;29;20032;-90
2021/12/26 03:17:55;;;;;;;1.38;1.27;;;-1.20;77.70;;;;;;4947937;29;20110;-91
2021/12/26 03:20:24;;;;;;;2.47;2.10;;;-1.20;77.80;;;;;;4948925;29;20035;-90
2021/12/26 03:22:50;;;;;;;3.95;2.65;;;-1.20;78.00;;;;;;4962474;29;20027;-91
2021/12/26 03:25:21;;;;;;;3.42;2.05;;;-1.20;78.10;;;;;;4950486;29;20035;-90
2021/12/26 03:27:49;;;;;;;2.35;1.85;;;-1.30;78.20;;;;;;4940640;29;20035;-91
2021/12/26 03:30:19;;;;;;;3.60;1.85;;;-1.30;78.30;;;;;;4939642;29;20027;-91
2021/12/26 03:32:45;;;;;;;7.97;2.85;;;-1.40;78.60;;;;;;4940111;29;20130;-91
2021/12/26 03:35:11;;;;;;;3.75;2.10;;;-1.40;78.80;;;;;;4940071;29;20462;-91
2021/12/26 03:37:39;;;;;;;3.55;1.70;;;-1.40;78.90;;;;;;4939705;29;20035;-91
2021/12/26 03:40:06;;;;;;;2.25;1.63;;;-1.50;79.10;;;;;;4956624;29;20031;-91
2021/12/26 03:42:32;;;;;;;6.18;1.80;;;-1.50;79.30;;;;;;4939394;29;20035;-90
2021/12/26 03:44:58;;;;;;;2.80;1.92;;;-1.50;79.50;;;;;;4939416;29;20458;-92
2021/12/26 03:47:24;;;;;;;3.08;1.85;;;-1.50;79.60;;;;;;4956193;29;20054;-88
2021/12/26 03:49:51;;;;;;;3.30;2.35;;;-1.60;79.70;;;;;;4939526;29;20047;-91
2021/12/26 03:52:17;;;;;;;5.00;2.63;;;-1.60;79.80;;;;;;4939668;29;20078;-91
2021/12/26 03:54:42;;;;;;;8.05;2.30;;;-1.60;79.80;;;;;;4938906;29;20076;-89
2021/12/26 03:57:08;;;;;;;4.28;1.98;;;-1.70;79.80;;;;;;4939227;29;20045;-89
2021/12/26 03:59:34;;;;;;;5.30;1.92;;;-1.70;79.90;;;;;;4938618;29;20042;-89
2021/12/26 04:02:00;;;;;;;2.65;1.58;;;-1.70;80.10;;;;;;4939192;29;20039;-88
2021/12/26 04:04:26;;;;;;;3.03;2.03;;;-1.80;80.10;;;;;;4939180;29;20043;-91
2021/12/26 04:06:52;;;;;;;1.67;1.42;;;-1.80;80.40;;;;;;4939394;29;20130;-91
2021/12/26 04:09:18;;;;;;;4.78;2.25;;;-1.90;80.40;;;;;;4939358;29;20501;-91
2021/12/26 04:11:45;;;;;;;2.17;1.98;;;-1.90;80.60;;;;;;4956111;28;20466;-91
2021/12/26 04:14:13;;;;;;;3.40;2.17;;;-2.00;80.80;;;;;;4942564;29;20031;-90
2021/12/26 04:16:39;;;;;;;2.33;1.80;;;-2.10;81.00;;;;;;4942888;29;20071;-91
2021/12/26 04:19:05;;;;;;;4.57;2.47;;;-2.10;81.10;;;;;;4942914;29;20036;-90
2021/12/26 04:21:31;;;;;;;4.88;2.30;;;-2.20;81.30;;;;;;4943178;29;20454;-91
2021/12/26 04:23:57;;;;;;;1.73;1.52;;;-2.30;81.80;;;;;;4960147;29;20035;-90
2021/12/26 04:26:22;;;;;;;4.63;2.38;;;-2.30;81.90;;;;;;4942982;29;20036;-91
2021/12/26 04:28:48;;;;;;;2.60;1.60;;;-2.40;81.90;;;;;;4943361;29;20043;-90
2021/12/26 04:31:15;;;;;;;2.58;1.83;;;-2.40;82.20;;;;;;4942493;29;20031;-90
2021/12/26 04:33:41;;;;;;;3.85;2.40;;;-2.40;82.70;;;;;;4943451;29;20047;-91
2021/12/26 04:36:08;;;;;;;4.07;2.38;;;-2.50;82.60;;;;;;4948192;29;20039;-91
2021/12/26 04:38:34;;;;;;;4.03;1.98;;;-2.50;83.00;;;;;;4956520;29;20434;-90
2021/12/26 04:41:00;;;;;;;3.40;1.95;;;-2.50;83.10;;;;;;4956287;29;20394;-90
2021/12/26 04:43:27;;;;;;;3.92;2.42;;;-2.60;83.10;;;;;;4945061;29;20098;-90
2021/12/26 04:45:52;;;;;;;4.47;1.58;;;-2.60;84.10;;;;;;4946395;29;20039;-91
2021/12/26 04:48:18;;;;;;;4.30;2.15;;;-2.60;83.40;;;;;;4943232;29;20046;-91
2021/12/26 04:50:44;;;;;;;2.97;2.60;;;-2.70;84.10;;;;;;4942343;29;20058;-91
2021/12/26 04:53:10;;;;;;;3.35;2.38;;;-2.60;83.60;;;;;;4942285;29;20035;-91
2021/12/26 04:55:36;;;;;;;4.18;2.90;;;-2.60;83.90;;;;;;4942318;29;20035;-91
2021/12/26 04:58:03;;;;;;;4.90;2.75;;;-2.70;83.80;;;;;;4942181;29;20035;-90
2021/12/26 05:00:31;;;;;;;6.22;3.42;;;-2.70;84.00;;;;;;4942274;29;20038;-91
2021/12/26 05:02:58;;;;;;;3.20;2.00;;;-2.70;83.80;;;;;;4942616;29;20031;-90
2021/12/26 05:05:28;;;;;;;6.47;2.55;;;-2.80;84.40;;;;;;4942259;29;20083;-90
2021/12/26 05:07:54;;;;;;;8.35;3.45;;;-2.80;84.70;;;;;;4942043;29;20046;-90
2021/12/26 05:10:21;;;;;;;6.93;4.35;;;-2.90;84.90;;;;;;4942175;29;20063;-90
2021/12/26 05:12:47;;;;;;;6.32;3.40;;;-2.90;84.90;;;;;;4941383;29;20055;-91
2021/12/26 05:15:16;;;;;;;3.20;2.53;;;-2.90;84.90;;;;;;4941936;29;20035;-91
2021/12/26 05:17:42;;;;;;;5.50;3.30;;;-2.90;85.20;;;;;;4942152;29;20402;-91
2021/12/26 05:20:10;;;;;;;5.72;2.65;;;-3.00;85.60;;;;;;4941673;29;20042;-90
2021/12/26 05:22:36;;;;;;;6.75;2.88;;;-3.00;85.20;;;;;;4941976;29;20402;-91
2021/12/26 05:25:04;;;;;;;3.28;2.22;;;-3.00;85.40;;;;;;4942108;29;20063;-91
2021/12/26 05:27:30;;;;;;;6.15;2.70;;;-3.00;85.40;;;;;;4958845;29;20047;-90
2021/12/26 05:29:55;;;;;;;4.13;2.90;;;-3.10;85.40;;;;;;4941804;29;20077;-91
2021/12/26 05:32:21;;;;;;;3.15;2.45;;;-3.10;85.90;;;;;;4941655;29;20474;-90
2021/12/26 05:34:47;;;;;;;3.03;1.63;;;-3.10;85.80;;;;;;4941937;29;20035;-90
2021/12/26 05:37:13;;;;;;;6.30;2.67;;;-3.20;85.70;;;;;;4941632;29;20135;-90
2021/12/26 05:39:38;;;;;;;5.43;2.15;;;-3.10;85.70;;;;;;4941087;29;20035;-90
2021/12/26 05:42:04;;;;;;;3.40;1.80;;;-3.20;85.90;;;;;;4941758;29;20126;-90
2021/12/26 05:44:30;;;;;;;3.15;2.00;;;-3.20;85.70;;;;;;4941913;29;20191;-89
2021/12/26 05:46:56;;;;;;;3.53;2.53;;;-3.10;86.10;;;;;;4941893;29;20482;-89
2021/12/26 05:49:22;;;;;;;3.70;2.45;;;-3.20;86.10;;;;;;4941646;29;20071;-90
2021/12/26 05:51:48;;;;;;;5.88;3.13;;;-3.20;86.30;;;;;;4944174;29;20035;-90
2021/12/26 05:54:13;;;;;;;4.63;2.88;;;-3.20;86.50;;;;;;4949353;29;20047;-89
2021/12/26 05:56:39;;;;;;;7.13;2.78;;;-3.10;86.30;;;;;;4951366;29;20032;-90
2021/12/26 05:59:05;;;;;;;5.40;2.55;;;-3.20;86.50;;;;;;4948139;29;20039;-90
2021/12/26 06:01:31;;;;;;;5.53;2.60;;;-3.20;86.60;;;;;;4942527;29;20035;-90
2021/12/26 06:03:56;;;;;;;5.18;1.98;;;-3.20;86.80;;;;;;4943466;29;20063;-90
2021/12/26 06:06:22;;;;;;;7.90;3.33;;;-3.20;87.00;;;;;;4942760;29;20042;-90
2021/12/26 06:08:48;;;;;;;4.13;2.70;;;-3.20;87.40;;;;;;4941068;29;20505;-91
2021/12/26 06:11:14;;;;;;;3.42;2.28;;;-3.20;87.40;;;;;;4940766;29;20422;-90
2021/12/26 06:13:40;;;;;;;3.75;2.28;;;-3.20;87.70;;;;;;4941892;29;20035;-90
2021/12/26 06:16:06;;;;;;;8.70;4.03;;;-3.20;87.90;;;;;;4940724;29;20138;-90
2021/12/26 06:18:32;;;;;;;7.35;4.18;;;-3.20;88.00;;;;;;4941232;29;20043;-90
2021/12/26 06:20:57;;;;;;;5.85;2.95;;;-3.20;88.30;;;;;;4941091;29;20162;-91
2021/12/26 06:23:27;;;;;;;6.72;3.55;;;-3.20;88.60;;;;;;4940989;29;20043;-91
2021/12/26 06:25:53;;;;;;;6.38;3.33;;;-3.20;88.50;;;;;;4941179;29;20050;-91
2021/12/26 06:28:18;;;;;;;5.75;2.92;;;-3.10;88.40;;;;;;4941056;29;20126;-90
2021/12/26 06:30:44;;;;;;;5.88;2.55;;;-3.20;88.40;;;;;;4940979;29;20035;-90
2021/12/26 06:33:10;;;;;;;5.07;2.80;;;-3.10;88.50;;;;;;4957737;29;20473;-89
2021/12/26 06:35:36;;;;;;;5.28;3.28;;;-3.10;88.70;;;;;;4940206;29;20050;-90
2021/12/26 06:38:01;;;;;;;4.65;2.63;;;-3.10;88.60;;;;;;4942111;29;20043;-92
2021/12/26 06:40:27;;;;;;;5.80;3.25;;;-3.00;88.70;;;;;;4940446;29;20035;-91
2021/12/26 06:42:53;;;;;;;6.05;2.70;;;-2.90;88.80;;;;;;4940108;29;20040;-91
2021/12/26 06:45:19;;;;;;;10.82;2.75;;;-2.90;88.70;;;;;;4957751;29;20031;-91
2021/12/26 06:47:50;;;;;;;3.83;2.17;;;-2.80;88.70;;;;;;4940525;29;20494;-91
2021/12/26 06:50:17;;;;;;;7.28;3.30;;;-2.80;88.20;;;;;;4940656;29;20039;-91
2021/12/26 06:52:43;;;;;;;3.13;1.92;;;-2.80;88.10;;;;;;4940577;29;20036;-91
2021/12/26 06:55:10;;;;;;;5.22;3.60;;;-2.80;88.10;;;;;;4940497;29;20038;-91
2021/12/26 06:57:37;;;;;;;5.90;2.65;;;-2.70;88.20;;;;;;4940735;29;20375;-92
2021/12/26 07:00:10;;;;;;;5.53;2.17;;;-2.60;88.10;;;;;;4940750;29;20130;-92
2021/12/26 07:02:38;;;;;;;6.57;3.15;;;-2.50;87.60;;;;;;4940252;29;20066;-92
2021/12/26 07:05:04;;;;;;;3.75;2.88;;;-2.50;87.30;;;;;;4939557;29;20042;-92
2021/12/26 07:07:30;;;;;;;5.97;2.60;;;-2.40;86.00;;;;;;4940876;29;20032;-92
2021/12/26 07:09:56;;;;;;;3.47;2.78;;;-2.40;86.50;;;;;;4934111;29;20058;-91
2021/12/26 07:12:21;;;;;;;10.70;3.05;;;-2.40;86.00;;;;;;4944347;29;20051;-91
2021/12/26 07:14:47;;;;;;;5.38;2.65;;;-2.40;86.50;;;;;;4945319;29;20130;-91
2021/12/26 07:17:13;;;;;;;4.00;2.90;;;-2.30;87.00;;;;;;4936629;29;20044;-91
2021/12/26 07:19:39;;;;;;;5.32;2.67;;;-2.20;86.50;;;;;;4936148;29;20070;-91
2021/12/26 07:22:28;;;;;;;;;;;;;;;;;;;;;
2021/12/26 07:25:16;;;;;;;6.18;3.25;;;-2.00;86.30;;;;;;4949448;29;20041;-91
2021/12/26 07:28:03;;;;;;;;;;;;;;;;;;;;;
2021/12/26 07:30:33;;;;;;;6.13;3.45;;;-1.80;86.10;;;;;;4953346;29;20545;-90
2021/12/26 07:33:04;;;;;;;3.60;2.13;;;-1.70;85.70;;;;;;4939217;29;20035;-91
2021/12/26 07:35:33;;;;;;;3.53;2.20;;;-1.60;83.70;;;;;;4941676;29;20560;-91
2021/12/26 07:38:02;;;;;;;6.82;2.58;;;-1.60;83.10;;;;;;4940986;29;20035;-91
2021/12/26 07:40:30;;;;;;;5.65;2.90;;;-1.60;82.00;;;;;;4940743;29;20486;-91
2021/12/26 07:42:56;;;;;;;4.57;2.83;;;-1.60;82.50;;;;;;4940771;29;20398;-91
2021/12/26 07:45:22;;;;;;;6.35;2.90;;;-1.60;83.20;;;;;;4940538;29;20039;-90
2021/12/26 07:47:48;;;;;;;2.33;1.88;;;-1.60;82.50;;;;;;4939765;29;20497;-90
2021/12/26 07:50:14;;;;;;;5.03;2.78;;;-1.50;82.90;;;;;;4941732;29;20035;-90
2021/12/26 07:52:52;;;;;;;;;;;;;;;;;;;;;
2021/12/26 07:55:22;;;;;;;5.13;3.03;;;-1.50;81.90;;;;;;4959524;29;20106;-91
2021/12/26 07:57:56;;;;;;;5.28;3.20;;;-1.50;81.70;;;;;;4940640;29;20039;-91
2021/12/26 08:00:25;;;;;;;5.45;2.65;;;-1.60;81.60;;;;;;4941259;29;20047;-91
2021/12/26 08:03:00;;;;;;;7.60;3.55;;;-1.60;82.20;;;;;;4940524;29;20059;-90
2021/12/26 08:05:52;;;;;;;5.78;3.38;;;-1.60;82.30;;;;;;4940302;29;20038;-90
2021/12/26 08:08:27;;;;;;;7.80;3.13;;;-1.60;81.80;;;;;;4928091;29;20055;-90
2021/12/26 08:11:19;;;;;;;6.47;3.50;;;-1.60;81.90;;;;;;4941809;29;20058;-90
2021/12/26 08:13:55;;;;;;;5.35;2.85;;;-1.60;82.30;;;;;;4941420;29;20063;-90
2021/12/26 08:16:23;;;;;;;5.93;3.17;;;-1.50;82.60;;;;;;4940970;29;20068;-89
2021/12/26 08:19:01;;;;;;;7.22;3.35;;;-1.40;82.40;;;;;;4940702;29;20134;-90
2021/12/26 08:21:29;;;;;;;6.28;3.25;;;-1.30;81.40;;;;;;4941407;29;20074;-92
2021/12/26 08:24:02;;;;;;;6.82;2.45;;;-1.30;81.10;;;;;;4942235;29;20042;-92
2021/12/26 08:26:42;;;;;;;5.70;2.53;;;-1.10;82.20;;;;;;4943243;29;20082;-90
2021/12/26 08:29:31;;;;;;;5.85;2.80;;;-1.00;81.80;;;;;;4954794;29;20047;-92
2021/12/26 08:32:20;;;;;;;6.47;2.65;;;-0.90;80.90;;;;;;4959256;29;20077;-91
2021/12/26 08:34:53;;;;;;;4.00;2.17;;;-0.80;79.50;;;;;;4953528;29;20097;-93
2021/12/26 08:37:27;;;;;;;5.07;3.03;;;-0.80;79.30;;;;;;4966822;29;20036;-93
2021/12/26 08:39:57;;;;;;;4.10;2.17;;;-0.80;78.00;;;;;;4946204;29;20039;-93
2021/12/26 08:42:27;;;;;;;4.20;2.30;;;-0.90;79.10;;;;;;4942708;29;20035;-94
2021/12/26 08:45:02;;;;;;;6.75;3.30;;;-0.80;79.60;;;;;;4940739;29;20051;-94
2021/12/26 08:47:31;;;;;;;6.35;2.53;;;-0.70;79.20;;;;;;4942296;29;20090;-93
2021/12/26 08:49:57;;;;;;;3.63;2.05;;;-0.70;78.20;;;;;;4940741;29;20067;-94
2021/12/26 08:52:29;;;;;;;7.45;3.45;;;-0.80;78.00;;;;;;4940943;29;20519;-93
2021/12/26 08:55:02;;;;;;;6.35;3.22;;;-0.80;77.90;;;;;;4940529;29;20140;-92
2021/12/26 08:57:35;;;;;;;3.60;2.42;;;-0.80;78.70;;;;;;4942021;29;20491;-93
2021/12/26 09:00:10;;;;;;;8.35;3.63;;;-0.80;77.30;;;;;;4943973;29;20035;-94
2021/12/26 09:02:47;;;;;;;6.28;3.10;;;-0.80;77.30;;;;;;4944793;29;20070;-94
2021/12/26 09:05:16;;;;;;;5.15;2.75;;;-0.80;76.30;;;;;;4944758;29;20458;-92
2021/12/26 09:07:51;;;;;;;5.43;2.67;;;-0.80;76.70;;;;;;4946352;29;20047;-91
2021/12/26 09:10:22;;;;;;;4.38;2.97;;;-0.80;75.80;;;;;;4932523;29;20047;-94
2021/12/26 09:13:35;;;;;;;;;;;;;;;;;;;;;
2021/12/26 09:16:11;;;;;;;3.83;2.20;;;-0.70;75.80;;;;;;4961822;29;20134;-94
2021/12/26 09:18:50;;;;;;;;;;;;;;;;;;;;;
2021/12/26 09:21:39;;;;;;;4.28;2.25;;;-0.60;74.20;;;;;;4959984;28;20098;-94
2021/12/26 09:24:38;;;;;;;5.93;3.38;;;-0.70;73.40;;;;;;4963705;29;20463;-94
2021/12/26 09:27:07;;;;;;;3.58;2.97;;;-0.70;73.60;;;;;;4966267;29;20042;-92
2021/12/26 09:30:11;;;;;;;;;;;;;;;;;;;;;
2021/12/26 09:35:31;;;;;;;4.38;2.72;;;-0.50;75.30;;;;;;4951373;29;20039;-92
2021/12/26 09:38:29;;;;;;;4.70;2.17;;;-0.30;75.70;;;;;;4961595;29;20494;-93
2021/12/26 09:41:18;;;;;;;3.03;1.95;;;-0.20;74.10;;;;;;4943733;29;20035;-95
2021/12/26 09:44:07;;;;;;;6.13;2.05;;;-0.10;74.80;;;;;;4931944;29;20126;-93
2021/12/26 09:46:41;;;;;;;12.55;3.78;;;0.00;73.40;;;;;;4949806;29;20135;-95
2021/12/26 09:53:12;;;;;;;6.60;2.45;;;-0.10;70.30;;;;;;4916849;29;20314;-93
2021/12/26 09:55:39;;;;;;;5.47;2.20;;;-0.10;71.70;;;;;;4911925;29;20070;-92
2021/12/26 09:58:09;;;;;;;3.85;2.63;;;-0.10;71.10;;;;;;4954840;29;20122;-95
2021/12/26 10:00:40;;;;;;;5.53;2.60;;;-0.20;70.20;;;;;;4944593;29;20435;-93
2021/12/26 10:03:30;;;;;;;;;;;;;;;;;;;;;
2021/12/26 10:06:18;;;;;;;8.90;2.95;;;-0.10;70.40;;;;;;4959842;29;20035;-92
2021/12/26 10:09:18;;;;;;;6.80;2.90;;;-0.10;70.70;;;;;;4942502;29;20046;-93
2021/12/26 10:12:04;;;;;;;3.70;2.53;;;-0.10;71.30;;;;;;4943213;29;20058;-92
2021/12/26 10:14:33;;;;;;;5.07;2.08;;;0.00;70.90;;;;;;4960350;29;20046;-94
2021/12/26 10:17:07;;;;;;;2.75;2.08;;;-0.10;69.40;;;;;;4945979;29;20041;-92
2021/12/26 10:19:39;;;;;;;4.70;2.28;;;0.00;70.60;;;;;;4942433;29;20031;-92
2021/12/26 10:22:16;;;;;;;3.33;1.85;;;0.00;68.80;;;;;;4954757;29;20039;-91
2021/12/26 10:24:55;;;;;;;5.88;3.45;;;-0.10;68.00;;;;;;4937187;29;20035;-91
2021/12/26 10:27:29;;;;;;;4.63;2.10;;;-0.10;69.00;;;;;;4940562;29;20097;-93
2021/12/26 10:29:59;;;;;;;3.88;1.52;;;0.00;68.60;;;;;;4958757;29;20055;-94
2021/12/26 10:32:38;;;;;;;4.47;2.17;;;0.00;69.00;;;;;;4935118;29;20035;-95
2021/12/26 10:35:21;;;;;;;2.53;1.48;;;0.10;69.30;;;;;;4942073;29;20032;-95
2021/12/26 10:37:52;;;;;;;3.40;1.48;;;0.10;66.90;;;;;;4926274;29;20039;-93
2021/12/26 10:40:27;;;;;;;2.58;1.83;;;0.10;68.70;;;;;;4926629;29;20470;-93
2021/12/26 10:42:56;;;;;;;2.08;1.45;;;0.10;66.80;;;;;;4938745;29;20134;-91
2021/12/26 10:45:29;;;;;;;4.70;2.58;;;0.20;67.90;;;;;;4941170;29;20035;-92
2021/12/26 10:48:00;;;;;;;4.70;2.33;;;0.20;68.00;;;;;;4941975;29;20434;-92
2021/12/26 10:50:28;;;;;;;3.63;2.70;;;0.20;65.90;;;;;;4943157;29;20098;-94
2021/12/26 10:53:02;;;;;;;2.50;2.05;;;0.20;66.30;;;;;;4943476;29;20036;-90
2021/12/26 10:55:51;;;;;;;2.25;1.83;;;0.20;65.60;;;;;;4935405;29;20475;-90
2021/12/26 10:58:23;;;;;;;3.60;1.98;;;0.20;64.60;;;;;;4957548;29;20047;-89
2021/12/26 11:00:57;;;;;;;4.05;1.63;;;0.20;65.80;;;;;;4943138;29;20475;-90
2021/12/26 11:03:28;;;;;;;3.95;2.03;;;0.20;66.20;;;;;;4943242;29;20133;-90
2021/12/26 11:06:00;;;;;;;2.80;1.38;;;0.30;65.50;;;;;;4940251;29;20039;-90
2021/12/26 11:08:29;;;;;;;2.53;1.90;;;0.30;66.00;;;;;;4956856;29;20066;-92
2021/12/26 11:10:56;;;;;;;2.65;1.83;;;0.30;64.80;;;;;;4949685;29;20125;-92
2021/12/26 11:13:41;;;;;;;4.20;2.25;;;0.20;64.40;;;;;;4952532;29;20067;-93
2021/12/26 11:16:08;;;;;;;4.43;1.92;;;0.20;64.80;;;;;;4970535;29;20066;-93
2021/12/26 11:18:36;;;;;;;3.60;2.05;;;0.20;65.30;;;;;;4972307;29;20059;-91
2021/12/26 11:24:12;;;;;;;4.15;3.00;;;0.20;64.40;;;;;;4970929;28;20035;-93
2021/12/26 11:27:02;;;;;;;3.60;1.90;;;0.20;64.00;;;;;;4976281;29;20067;-95
2021/12/26 11:30:09;;;;;;;2.15;1.52;;;0.20;65.80;;;;;;4962964;29;20058;-93
2021/12/26 11:32:56;;;;;;;3.47;1.65;;;0.20;65.40;;;;;;4970906;29;20039;-94
2021/12/26 11:35:40;;;;;;;3.53;1.88;;;0.30;65.70;;;;;;4967353;29;20061;-93
2021/12/26 11:38:24;;;;;;;2.80;1.50;;;0.40;63.30;;;;;;4969404;29;20122;-94
2021/12/26 11:40:54;;;;;;;2.15;1.48;;;0.30;63.30;;;;;;4942432;29;20058;-94
2021/12/26 11:43:45;;;;;;;6.35;2.17;;;0.30;63.60;;;;;;4948900;29;20036;-95
2021/12/26 11:46:51;;;;;;;3.22;1.52;;;0.20;63.30;;;;;;4967968;29;20141;-94
2021/12/26 11:50:00;;;;;;;3.95;2.42;;;0.20;63.80;;;;;;4950381;29;20059;-92
2021/12/26 11:53:03;;;;;;;2.15;1.30;;;0.20;63.40;;;;;;4944557;29;20071;-91
2021/12/26 11:55:55;;;;;;;1.70;1.25;;;0.20;63.90;;;;;;4912042;29;20471;-92
2021/12/26 11:58:43;;;;;;;4.50;2.17;;;0.20;63.90;;;;;;4947374;29;20067;-94
2021/12/26 12:01:17;;;;;;;1.75;1.48;;;0.30;64.40;;;;;;4944803;29;20038;-94
2021/12/26 12:03:43;;;;;;;2.55;1.55;;;0.30;63.60;;;;;;4945913;29;20038;-92
2021/12/26 12:06:25;;;;;;;3.22;1.98;;;0.30;62.40;;;;;;4943641;29;20039;-93
2021/12/26 12:08:51;;;;;;;2.50;1.67;;;0.40;62.90;;;;;;4942117;29;20057;-92
2021/12/26 12:11:22;;;;;;;3.90;1.75;;;0.40;63.70;;;;;;4941852;29;20093;-93
2021/12/26 12:13:50;;;;;;;2.92;1.77;;;0.40;62.70;;;;;;4942560;29;20039;-94
2021/12/26 12:16:24;;;;;;;2.42;1.77;;;0.40;61.40;;;;;;4941179;29;20043;-94
2021/12/26 12:18:54;;;;;;;3.88;1.60;;;0.40;61.40;;;;;;4947236;29;20051;-95
2021/12/26 12:21:51;;;;;;;7.75;2.00;;;0.30;61.50;;;;;;4967937;29;20031;-95
2021/12/26 12:24:29;;;;;;;3.55;2.55;;;0.30;62.10;;;;;;4935164;29;20107;-95
2021/12/26 12:27:17;;;;;;;4.88;2.35;;;0.20;62.10;;;;;;4968875;29;20043;-96
2021/12/26 12:29:52;;;;;;;3.70;1.42;;;0.30;62.70;;;;;;4966290;29;20043;-95
2021/12/26 12:32:21;;;;;;;;;;;0.30;62.70;;;;;;4953515;29;20031;-96
2021/12/26 12:35:04;;;;;;;4.40;1.55;;;0.30;61.80;;;;;;4957505;29;19910;-94
2021/12/26 12:37:30;;;;;;;6.60;1.83;;;0.20;62.00;;;;;;4960079;29;20040;-94
2021/12/26 12:40:08;;;;;;;4.10;2.03;;;0.20;62.00;;;;;;4960257;29;20042;-94
2021/12/26 12:42:35;;;;;;;3.30;2.08;;;0.20;62.30;;;;;;4958968;29;20035;-92
2021/12/26 12:45:02;;;;;;;4.00;2.25;;;0.20;62.30;;;;;;4957629;29;20042;-93
2021/12/26 12:50:58;;;;;;;1.55;1.30;;;0.10;61.90;;;;;;4962346;29;20054;-92
2021/12/26 12:53:44;;;;;;;1.55;1.30;;;0.10;62.30;;;;;;4950534;29;20066;-94
2021/12/26 12:56:30;;;;;;;3.78;2.00;;;0.00;62.70;;;;;;4951157;28;20128;-93
2021/12/26 12:59:18;;;;;;;2.40;1.70;;;0.00;62.90;;;;;;4947804;29;20074;-92
2021/12/26 13:01:51;;;;;;;5.45;2.38;;;-0.10;63.50;;;;;;4948459;29;20481;-93
2021/12/26 13:04:23;;;;;;;4.80;1.73;;;0.00;63.70;;;;;;4947343;29;20043;-92
2021/12/26 13:07:02;;;;;;;2.58;1.75;;;0.00;63.60;;;;;;4948451;29;20042;-93
2021/12/26 13:09:29;;;;;;;4.85;2.40;;;0.00;63.70;;;;;;4950249;29;20051;-93
2021/12/26 13:12:02;;;;;;;4.13;2.17;;;0.00;63.40;;;;;;4947523;29;20043;-94
2021/12/26 13:14:45;;;;;;;4.05;2.17;;;0.00;63.50;;;;;;4945367;29;20070;-94
2021/12/26 13:17:30;;;;;;;5.55;2.15;;;0.00;63.70;;;;;;4962131;28;20039;-94
2021/12/26 13:20:08;;;;;;;5.10;2.00;;;-0.10;63.80;;;;;;4946723;29;20494;-94
2021/12/26 13:22:56;;;;;;;6.47;1.42;;;-0.10;64.90;;;;;;4967827;29;20103;-95
2021/12/26 13:25:34;;;;;;;2.72;1.83;;;-0.10;64.60;;;;;;4966375;28;20060;-94
2021/12/26 13:28:23;;;;;;;6.85;2.30;;;-0.10;64.90;;;;;;4949563;29;20039;-94
2021/12/26 13:31:15;;;;;;;5.38;3.45;;;-0.10;65.00;;;;;;4945232;29;20037;-92
2021/12/26 13:33:45;;;;;;;3.58;1.92;;;-0.10;65.00;;;;;;4962942;29;20039;-93
2021/12/26 13:36:30;;;;;;;3.42;1.52;;;-0.10;65.20;;;;;;4962160;28;20047;-93
2021/12/26 13:38:57;;;;;;;5.82;2.33;;;-0.10;65.30;;;;;;4943309;29;20155;-92